YWVL weather

Woodville Airport
New South Wales, Australia

Public forecast

Using degrees Celsius for public forecast. Weather courtesy of forecast.io.

METAR (pilot weather report)

Closest report is Tamworth Airport, 61.7 nm (114.2 km) SW. Retrieved 2019/04/18 14:00 UTC (14 minutes ago):

YSTW 181400Z AUTO 12006KT 9999 // NCD 15/10 Q1026 RF00.0/000.0

TAF (pilot weather forecast)

Closest forecast is Tamworth Airport, 61.7 nm (114.2 km) SW. Retrieved 2019/04/18 12:36 UTC (2 hours ago):

TAF TAF YSTW 181056Z 1812/1906 13008KT CAVOK